createdAt,value
2023-01-23T00:01:32.048Z,92.68
2023-01-23T00:03:59.282Z,92.57
2023-01-23T00:06:27.076Z,92.69
2023-01-23T00:08:56.162Z,92.96
2023-01-23T00:11:28.395Z,92.67
2023-01-23T00:13:57.805Z,92.83
2023-01-23T00:16:29.122Z,92.83
2023-01-23T00:18:56.663Z,92.66
2023-01-23T00:21:27.914Z,92.62
2023-01-23T00:23:58.035Z,92.82
2023-01-23T00:26:29.345Z,92.62
2023-01-23T00:28:56.985Z,92.82
2023-01-23T00:31:32.036Z,92.57
2023-01-23T00:34:06.245Z,92.76
2023-01-23T00:36:42.507Z,92.83
2023-01-23T00:39:16.651Z,92.45
2023-01-23T00:41:46.470Z,92.80
2023-01-23T00:44:14.180Z,92.59
2023-01-23T00:46:41.335Z,92.83
2023-01-23T00:49:09.141Z,92.60
2023-01-23T00:51:36.175Z,92.71
2023-01-23T00:54:03.559Z,92.73
2023-01-23T00:56:31.224Z,92.84
2023-01-23T00:58:58.218Z,92.78
2023-01-23T01:01:25.943Z,92.89
2023-01-23T01:03:53.627Z,92.60
2023-01-23T01:06:20.894Z,92.80
2023-01-23T01:08:48.511Z,92.76
2023-01-23T01:11:17.133Z,92.60
2023-01-23T01:13:45.060Z,92.83
2023-01-23T01:16:12.138Z,92.68
2023-01-23T01:18:39.447Z,92.85
2023-01-23T01:21:12.260Z,92.59
2023-01-23T01:23:40.239Z,92.74
2023-01-23T01:26:08.092Z,92.66
2023-01-23T01:28:37.945Z,92.37
2023-01-23T01:31:09.479Z,92.38
2023-01-23T01:33:39.395Z,92.54
2023-01-23T01:36:17.463Z,92.43
2023-01-23T01:38:47.225Z,92.59
2023-01-23T01:41:15.497Z,92.67
2023-01-23T01:43:43.017Z,92.36
2023-01-23T01:46:21.735Z,92.34
2023-01-23T01:49:02.326Z,92.58
2023-01-23T01:51:40.587Z,92.48
2023-01-23T01:54:41.297Z,92.61
2023-01-23T01:57:33.457Z,92.69
2023-01-23T02:00:18.741Z,92.35
2023-01-23T02:02:54.750Z,92.82
2023-01-23T02:05:36.227Z,92.79
2023-01-23T02:08:58.450Z,92.51
2023-01-23T02:11:25.447Z,92.80
2023-01-23T02:13:55.225Z,92.88
2023-01-23T02:16:29.472Z,92.90
2023-01-23T02:19:02.728Z,92.87
2023-01-23T02:21:29.951Z,92.66
2023-01-23T02:24:24.703Z,92.80
2023-01-23T02:26:52.852Z,92.98
2023-01-23T02:29:20.451Z,93.03
2023-01-23T02:31:53.270Z,92.93
2023-01-23T02:34:22.706Z,92.96
2023-01-23T02:36:50.533Z,93.13
2023-01-23T02:39:20.014Z,92.83
2023-01-23T02:41:52.931Z,93.06
2023-01-23T02:44:29.371Z,92.91
2023-01-23T02:47:07.749Z,92.96
2023-01-23T02:49:34.700Z,92.91
2023-01-23T02:52:05.721Z,93.00
2023-01-23T02:54:33.248Z,92.84
2023-01-23T02:57:01.700Z,92.82
2023-01-23T02:59:48.533Z,93.10
2023-01-23T03:02:15.727Z,93.26
2023-01-23T03:04:42.668Z,93.22
2023-01-23T03:07:09.579Z,93.21
2023-01-23T03:09:37.923Z,92.99
2023-01-23T03:12:04.973Z,93.57
2023-01-23T03:14:32.285Z,93.32
2023-01-23T03:16:59.413Z,93.32
2023-01-23T03:19:31.225Z,93.30
2023-01-23T03:21:59.087Z,93.27
2023-01-23T03:24:26.010Z,93.05
2023-01-23T03:26:52.957Z,93.28
2023-01-23T03:29:43.952Z,93.05
2023-01-23T03:32:15.124Z,93.18
2023-01-23T03:34:43.256Z,93.12
2023-01-23T03:37:12.792Z,93.27
2023-01-23T03:40:01.399Z,93.36
2023-01-23T03:42:28.524Z,93.08
2023-01-23T03:44:57.964Z,93.16
2023-01-23T03:47:28.038Z,93.26
2023-01-23T03:49:55.897Z,93.18
2023-01-23T03:52:23.290Z,93.04
2023-01-23T03:54:50.529Z,93.22
2023-01-23T03:57:18.107Z,93.27
2023-01-23T03:59:47.955Z,93.00
2023-01-23T04:02:16.629Z,93.30
2023-01-23T04:04:43.905Z,93.19
2023-01-23T04:07:10.981Z,93.11
2023-01-23T04:09:39.770Z,93.25
2023-01-23T04:12:07.327Z,93.18
2023-01-23T04:14:38.349Z,93.00
2023-01-23T04:17:07.076Z,93.17
2023-01-23T04:19:35.639Z,93.12
2023-01-23T04:22:04.831Z,93.16
2023-01-23T04:24:38.526Z,93.08
2023-01-23T04:27:05.450Z,93.38
2023-01-23T04:29:34.014Z,93.59
2023-01-23T04:32:02.317Z,93.32
2023-01-23T04:34:31.198Z,93.23
2023-01-23T04:36:58.299Z,93.27
2023-01-23T04:39:25.234Z,93.33
2023-01-23T04:41:52.243Z,93.37
2023-01-23T04:44:48.412Z,93.62
2023-01-23T04:47:33.626Z,93.43
2023-01-23T04:50:03.651Z,93.69
2023-01-23T04:52:33.558Z,93.37
2023-01-23T04:55:00.468Z,93.70
2023-01-23T04:57:27.740Z,94.38
2023-01-23T05:00:01.420Z,94.29
2023-01-23T05:02:30.787Z,94.40
2023-01-23T05:04:58.067Z,94.13
2023-01-23T05:07:26.045Z,94.34
2023-01-23T05:10:08.682Z,93.95
2023-01-23T05:12:36.410Z,93.69
2023-01-23T05:15:04.739Z,94.07
2023-01-23T05:17:35.078Z,93.94
2023-01-23T05:20:03.687Z,94.20
2023-01-23T05:22:31.144Z,94.40
2023-01-23T05:24:59.368Z,93.96
2023-01-23T05:27:29.496Z,94.18
2023-01-23T05:29:56.563Z,94.15
2023-01-23T05:32:26.160Z,94.06
2023-01-23T05:35:16.634Z,93.60
2023-01-23T05:37:47.763Z,93.97
2023-01-23T05:40:15.194Z,93.59
2023-01-23T05:43:02.444Z,93.52
2023-01-23T05:45:48.380Z,93.64
2023-01-23T05:48:25.379Z,93.47
2023-01-23T05:50:52.458Z,93.71
2023-01-23T05:53:21.071Z,93.53
2023-01-23T05:55:47.974Z,93.56
2023-01-23T05:58:16.174Z,93.53
2023-01-23T06:01:05.371Z,93.61
2023-01-23T06:04:01.294Z,93.46
2023-01-23T06:06:36.190Z,93.32
2023-01-23T06:09:03.527Z,93.38
2023-01-23T06:11:30.553Z,93.20
2023-01-23T06:13:57.480Z,93.35
2023-01-23T06:16:24.411Z,93.07
2023-01-23T06:18:51.910Z,93.12
2023-01-23T06:21:19.266Z,92.98
2023-01-23T06:23:46.877Z,93.09
2023-01-23T06:26:14.759Z,93.09
2023-01-23T06:28:41.779Z,93.05
2023-01-23T06:31:10.227Z,93.08
2023-01-23T06:33:52.916Z,92.88
2023-01-23T06:36:24.282Z,92.95
2023-01-23T06:38:52.425Z,92.83
2023-01-23T06:41:24.425Z,92.84
2023-01-23T06:43:54.780Z,92.77
2023-01-23T06:46:24.638Z,92.75
2023-01-23T06:48:54.018Z,92.85
2023-01-23T06:51:21.292Z,92.79
2023-01-23T06:53:49.171Z,92.71
2023-01-23T06:56:16.532Z,92.73
2023-01-23T06:58:45.999Z,92.64
2023-01-23T07:01:22.752Z,92.81
2023-01-23T07:04:01.926Z,92.83
2023-01-23T07:06:31.176Z,92.83
2023-01-23T07:08:58.318Z,92.83
2023-01-23T07:11:25.769Z,92.73
2023-01-23T07:13:53.173Z,92.96
2023-01-23T07:16:20.562Z,92.95
2023-01-23T07:18:47.563Z,93.10
2023-01-23T07:21:14.519Z,93.07
2023-01-23T07:23:41.482Z,93.18
2023-01-23T07:26:09.514Z,93.07
2023-01-23T07:28:37.633Z,93.26
2023-01-23T07:31:05.246Z,93.34
2023-01-23T07:33:32.672Z,93.32
2023-01-23T07:35:59.760Z,93.50
2023-01-23T07:38:26.825Z,93.21
2023-01-23T07:40:58.692Z,93.51
2023-01-23T07:43:26.672Z,93.60
2023-01-23T07:45:53.892Z,93.38
2023-01-23T07:48:20.795Z,93.47
2023-01-23T07:50:47.759Z,93.54
2023-01-23T07:53:14.668Z,93.75
2023-01-23T07:55:41.617Z,93.54
2023-01-23T07:58:08.722Z,93.54
2023-01-23T08:00:35.707Z,93.70
2023-01-23T08:03:02.621Z,93.69
2023-01-23T08:05:29.575Z,93.62
2023-01-23T08:08:12.200Z,93.75
2023-01-23T08:10:39.890Z,93.74
2023-01-23T08:13:06.865Z,93.74
2023-01-23T08:15:33.800Z,93.80
2023-01-23T08:18:01.051Z,93.88
2023-01-23T08:20:28.130Z,93.85
2023-01-23T08:22:56.228Z,94.04
2023-01-23T08:25:23.136Z,94.05
2023-01-23T08:27:50.138Z,94.11
2023-01-23T08:30:17.783Z,94.14
2023-01-23T08:32:45.079Z,94.11
2023-01-23T08:35:12.005Z,94.25
2023-01-23T08:37:40.954Z,94.32
2023-01-23T08:40:08.660Z,94.29
2023-01-23T08:42:35.662Z,94.39
2023-01-23T08:45:02.707Z,94.34
2023-01-23T08:47:30.469Z,94.53
2023-01-23T08:49:57.397Z,94.31
2023-01-23T08:52:24.393Z,94.33
2023-01-23T08:54:51.300Z,94.58
2023-01-23T08:57:18.200Z,94.52
2023-01-23T08:59:45.583Z,94.29
2023-01-23T09:02:13.011Z,94.60
2023-01-23T09:04:40.369Z,94.52
2023-01-23T09:07:07.400Z,94.71
2023-01-23T09:09:34.378Z,95.05
2023-01-23T09:12:01.436Z,94.77
2023-01-23T09:14:28.369Z,94.55
2023-01-23T09:16:55.349Z,94.88
2023-01-23T09:19:22.398Z,94.53
2023-01-23T09:21:49.370Z,94.76
2023-01-23T09:24:16.804Z,94.43
2023-01-23T09:26:43.744Z,94.56
2023-01-23T09:29:10.695Z,94.54
2023-01-23T09:31:38.008Z,94.69
2023-01-23T09:34:04.926Z,94.75
2023-01-23T09:36:42.467Z,94.76
2023-01-23T09:39:10.436Z,94.59
2023-01-23T09:41:39.612Z,94.88
2023-01-23T09:44:22.782Z,94.88
2023-01-23T09:47:35.127Z,94.63
2023-01-23T09:50:33.239Z,94.82
2023-01-23T09:53:12.538Z,94.75
2023-01-23T09:55:45.456Z,94.92
2023-01-23T09:58:39.945Z,94.85
2023-01-23T10:01:13.438Z,94.88
2023-01-23T10:03:41.205Z,94.68
2023-01-23T10:06:24.753Z,94.63
2023-01-23T10:09:19.281Z,94.82
2023-01-23T10:12:15.498Z,94.51
2023-01-23T10:15:15.792Z,94.69
2023-01-23T10:18:10.613Z,94.90
2023-01-23T10:20:56.502Z,94.96
2023-01-23T10:23:32.268Z,94.74
2023-01-23T10:26:02.455Z,94.74
2023-01-23T10:28:40.132Z,95.02
2023-01-23T10:31:57.288Z,94.90
2023-01-23T10:34:34.453Z,94.80
2023-01-23T10:37:46.407Z,95.09
2023-01-23T10:40:41.388Z,94.80
2023-01-23T10:43:20.760Z,95.06
2023-01-23T10:45:49.773Z,94.98
2023-01-23T10:48:36.121Z,95.01
2023-01-23T10:51:04.204Z,94.85
2023-01-23T10:53:31.291Z,95.01
2023-01-23T10:56:02.209Z,94.77
2023-01-23T10:58:38.129Z,94.78
2023-01-23T11:01:18.869Z,94.97
2023-01-23T11:03:46.011Z,94.89
2023-01-23T11:06:20.544Z,94.74
2023-01-23T11:09:04.222Z,95.04
2023-01-23T11:11:32.775Z,95.17
2023-01-23T11:14:16.866Z,95.19
2023-01-23T11:16:44.559Z,95.08
2023-01-23T11:19:21.389Z,94.99
2023-01-23T11:21:55.343Z,94.94
2023-01-23T11:24:37.791Z,95.02
2023-01-23T11:27:15.420Z,94.97
2023-01-23T11:30:09.406Z,94.97
2023-01-23T11:33:01.946Z,94.94
2023-01-23T11:35:44.783Z,95.19
2023-01-23T11:38:17.997Z,95.32
2023-01-23T11:40:48.019Z,95.00
2023-01-23T11:43:17.201Z,95.37
2023-01-23T11:46:06.791Z,95.22
2023-01-23T11:49:18.950Z,95.26
2023-01-23T11:52:20.487Z,95.38
2023-01-23T11:55:11.970Z,95.40
2023-01-23T11:58:06.316Z,95.31
2023-01-23T12:00:44.636Z,95.54
2023-01-23T12:03:26.492Z,95.20
2023-01-23T12:06:36.706Z,95.43
2023-01-23T12:09:18.636Z,95.04
2023-01-23T12:12:16.992Z,95.33
2023-01-23T12:15:08.107Z,95.46
2023-01-23T12:17:52.549Z,95.33
2023-01-23T12:21:08.729Z,95.57
2023-01-23T12:24:00.361Z,95.33
2023-01-23T12:26:31.014Z,95.43
2023-01-23T12:29:26.528Z,95.51
2023-01-23T12:32:27.856Z,95.51
2023-01-23T12:35:06.635Z,95.68
2023-01-23T12:38:09.287Z,95.71
2023-01-23T12:41:11.767Z,95.49
2023-01-23T12:44:04.935Z,95.89
2023-01-23T12:47:00.303Z,95.93
2023-01-23T12:50:01.382Z,95.91
2023-01-23T12:53:03.853Z,95.82
2023-01-23T12:55:38.172Z,95.74
2023-01-23T12:58:09.276Z,95.65
2023-01-23T13:00:46.256Z,95.96
2023-01-23T13:03:49.504Z,95.73
2023-01-23T13:06:32.220Z,95.76
2023-01-23T13:09:18.962Z,95.79
2023-01-23T13:12:21.797Z,95.58
2023-01-23T13:15:14.211Z,95.63
2023-01-23T13:18:00.399Z,95.77
2023-01-23T13:20:49.673Z,95.72
2023-01-23T13:23:26.481Z,95.69
2023-01-23T13:26:16.132Z,95.48
2023-01-23T13:28:57.830Z,95.39
2023-01-23T13:31:47.651Z,95.79
2023-01-23T13:34:17.964Z,95.58
2023-01-23T13:36:50.451Z,95.65
2023-01-23T13:39:17.392Z,95.51
2023-01-23T13:41:47.055Z,95.32
2023-01-23T13:44:40.777Z,95.43
2023-01-23T14:24:49.770Z,95.70
2023-01-23T14:27:30.464Z,95.96
2023-01-23T14:30:09.705Z,95.83
2023-01-23T14:32:38.309Z,96.06
2023-01-23T14:35:31.329Z,96.22
2023-01-23T14:38:02.104Z,96.59
2023-01-23T14:40:37.287Z,96.78
2023-01-23T14:43:09.286Z,97.01
2023-01-23T14:45:37.672Z,97.04
2023-01-23T14:48:07.945Z,97.18
2023-01-23T14:50:35.610Z,97.18
2023-01-23T14:53:12.358Z,97.31
2023-01-23T14:55:45.006Z,96.92
2023-01-23T14:58:23.509Z,97.18
2023-01-23T15:00:53.225Z,97.22
2023-01-23T15:03:40.032Z,97.31
2023-01-23T15:06:20.417Z,97.16
2023-01-23T15:08:48.708Z,96.63
2023-01-23T15:11:17.921Z,96.86
2023-01-23T15:13:54.660Z,96.84
2023-01-23T15:16:25.854Z,96.33
2023-01-23T15:19:18.711Z,96.55
2023-01-23T15:21:45.645Z,96.43
2023-01-23T15:24:12.563Z,96.45
2023-01-23T15:26:42.776Z,96.43
2023-01-23T15:29:09.754Z,96.15
2023-01-23T15:31:45.063Z,96.42
2023-01-23T15:34:15.015Z,96.06
2023-01-23T15:37:24.795Z,96.08
2023-01-23T15:40:00.698Z,95.85
2023-01-23T15:42:33.018Z,95.85
2023-01-23T15:45:01.596Z,95.72
2023-01-23T15:47:32.177Z,95.56
2023-01-23T15:50:01.499Z,95.80
2023-01-23T15:52:49.123Z,95.73
2023-01-23T15:55:16.873Z,95.66
2023-01-23T15:57:43.892Z,95.41
2023-01-23T16:00:26.312Z,95.38
2023-01-23T16:02:57.165Z,95.46
2023-01-23T16:05:33.040Z,95.09
2023-01-23T16:08:02.425Z,95.13
2023-01-23T16:10:35.042Z,95.33
2023-01-23T16:13:02.564Z,95.25
2023-01-23T16:15:35.242Z,95.37
2023-01-23T16:18:04.442Z,94.90
2023-01-23T16:20:44.480Z,94.96
2023-01-23T16:23:18.623Z,94.89
2023-01-23T16:25:46.607Z,95.13
2023-01-23T16:28:22.927Z,95.00
2023-01-23T16:30:51.716Z,94.88
2023-01-23T16:33:20.363Z,95.02
2023-01-23T16:35:49.386Z,94.65
2023-01-23T16:38:24.019Z,94.66
2023-01-23T16:40:53.145Z,94.47
2023-01-23T16:43:21.800Z,94.49
2023-01-23T16:45:49.025Z,94.68
2023-01-23T16:48:26.317Z,94.34
2023-01-23T16:51:08.152Z,94.35
2023-01-23T16:53:41.133Z,94.52
2023-01-23T16:56:17.975Z,94.38
2023-01-23T16:58:44.947Z,94.35
2023-01-23T17:01:20.414Z,94.35
2023-01-23T17:03:58.968Z,94.28
2023-01-23T17:06:26.228Z,94.42
2023-01-23T17:08:53.630Z,94.23
2023-01-23T17:11:26.570Z,93.96
2023-01-23T17:13:59.052Z,93.92
2023-01-23T17:16:28.191Z,94.00
2023-01-23T17:18:59.381Z,94.06
2023-01-23T17:21:34.171Z,93.86
2023-01-23T17:24:01.327Z,93.74
2023-01-23T17:26:28.281Z,93.66
2023-01-23T17:28:55.372Z,93.82
2023-01-23T17:31:25.715Z,93.40
2023-01-23T17:33:53.286Z,93.58
2023-01-23T17:36:20.273Z,93.58
2023-01-23T17:38:47.490Z,93.49
2023-01-23T17:41:16.438Z,93.41
2023-01-23T17:43:44.622Z,93.53
2023-01-23T17:46:31.190Z,93.44
2023-01-23T17:48:58.309Z,93.58
2023-01-23T17:51:26.134Z,93.47
2023-01-23T17:53:53.187Z,93.48
2023-01-23T17:56:20.130Z,93.15
2023-01-23T17:58:47.123Z,93.55
2023-01-23T18:01:25.777Z,93.20
2023-01-23T18:03:53.635Z,93.27
2023-01-23T18:06:20.615Z,93.11
2023-01-23T18:08:47.791Z,93.41
2023-01-23T18:11:23.650Z,93.16
2023-01-23T18:14:22.772Z,93.18
2023-01-23T18:16:50.177Z,93.40
2023-01-23T18:19:23.783Z,93.38
2023-01-23T18:21:54.567Z,93.45
2023-01-23T18:24:31.694Z,93.17
2023-01-23T18:27:00.018Z,93.36
2023-01-23T18:29:54.768Z,93.21
2023-01-23T18:34:10.743Z,93.32
2023-01-23T18:36:49.678Z,93.26
2023-01-23T18:39:44.086Z,93.49
2023-01-23T18:42:35.519Z,93.39
2023-01-23T18:45:20.985Z,93.61
2023-01-23T18:47:53.990Z,93.56
2023-01-23T18:50:25.285Z,93.40
2023-01-23T18:53:34.065Z,93.72
2023-01-23T18:56:27.341Z,93.47
2023-01-23T18:59:25.868Z,93.62
2023-01-23T19:02:12.824Z,93.67
2023-01-23T19:05:10.562Z,93.39
2023-01-23T19:07:38.216Z,93.57
2023-01-23T19:10:07.718Z,93.54
2023-01-23T19:12:46.968Z,93.54
2023-01-23T19:15:30.898Z,93.61
2023-01-23T19:18:42.825Z,93.60
2023-01-23T19:21:24.999Z,93.66
2023-01-23T19:24:10.997Z,93.61
2023-01-23T19:26:40.842Z,93.85
2023-01-23T19:29:26.128Z,93.69
2023-01-23T19:32:07.254Z,93.66
2023-01-23T19:34:34.931Z,93.66
2023-01-23T19:37:02.764Z,93.81
2023-01-23T19:39:30.649Z,93.94
2023-01-23T19:41:59.490Z,93.91
2023-01-23T19:44:28.842Z,93.74
2023-01-23T19:46:55.998Z,93.73
2023-01-23T19:49:23.021Z,93.98
2023-01-23T19:51:49.949Z,93.97
2023-01-23T19:54:17.040Z,93.68
2023-01-23T19:56:44.206Z,93.81
2023-01-23T19:59:11.441Z,93.85
2023-01-23T20:01:41.163Z,93.75
2023-01-23T20:04:13.706Z,93.91
2023-01-23T20:06:40.742Z,93.61
2023-01-23T20:09:14.371Z,93.78
2023-01-23T20:11:42.646Z,93.85
2023-01-23T20:14:09.674Z,93.98
2023-01-23T20:16:40.111Z,93.91
2023-01-23T20:19:07.556Z,94.03
2023-01-23T20:21:34.686Z,94.09
2023-01-23T20:24:01.672Z,94.23
2023-01-23T20:26:28.685Z,94.40
2023-01-23T20:28:55.580Z,94.47
2023-01-23T20:31:22.764Z,94.53
2023-01-23T20:33:50.300Z,94.74
2023-01-23T20:36:17.355Z,94.43
2023-01-23T20:38:44.333Z,94.40
2023-01-23T20:41:14.884Z,94.71
2023-01-23T20:43:44.966Z,94.58
2023-01-23T20:46:14.550Z,94.53
2023-01-23T20:48:44.163Z,94.40
2023-01-23T20:51:13.233Z,94.40
2023-01-23T20:53:40.602Z,94.59
2023-01-23T20:56:09.453Z,94.46
2023-01-23T20:58:59.536Z,94.45
2023-01-23T21:01:30.731Z,94.45
2023-01-23T21:03:57.793Z,94.40
2023-01-23T21:06:24.705Z,94.49
2023-01-23T21:08:51.609Z,94.47
2023-01-23T21:11:20.734Z,94.64
2023-01-23T21:13:51.820Z,94.36
2023-01-23T21:16:20.457Z,94.32
2023-01-23T21:18:48.028Z,94.40
2023-01-23T21:21:18.819Z,94.54
2023-01-23T21:23:48.858Z,94.52
2023-01-23T21:26:19.483Z,94.48
2023-01-23T21:28:48.654Z,94.43
2023-01-23T21:31:20.771Z,94.18
2023-01-23T21:33:48.412Z,94.45
2023-01-23T21:36:23.012Z,94.53
2023-01-23T21:39:02.125Z,94.32
2023-01-23T21:41:29.045Z,94.29
2023-01-23T21:43:56.625Z,94.21
2023-01-23T21:46:23.776Z,94.38
2023-01-23T21:48:52.142Z,94.43
2023-01-23T21:51:25.172Z,94.05
2023-01-23T21:53:52.077Z,94.36
2023-01-23T21:56:22.101Z,94.36
2023-01-23T21:58:50.169Z,94.21
2023-01-23T22:01:35.566Z,94.24
2023-01-23T22:04:18.065Z,94.21
2023-01-23T22:06:45.713Z,94.29
2023-01-23T22:09:18.431Z,94.14
2023-01-23T22:11:47.182Z,94.15
2023-01-23T22:14:15.013Z,94.11
2023-01-23T22:16:50.594Z,94.16
2023-01-23T22:19:24.454Z,94.27
2023-01-23T22:21:55.727Z,94.15
2023-01-23T22:24:22.818Z,94.12
2023-01-23T22:26:49.811Z,94.08
2023-01-23T22:29:16.903Z,94.00
2023-01-23T22:31:44.249Z,94.03
2023-01-23T22:34:11.385Z,94.34
2023-01-23T22:36:38.322Z,94.06
2023-01-23T22:39:05.332Z,94.25
2023-01-23T22:41:32.722Z,93.97
2023-01-23T22:43:59.660Z,94.22
2023-01-23T22:46:27.947Z,94.06
2023-01-23T22:48:54.908Z,93.97
2023-01-23T22:51:25.639Z,94.00
2023-01-23T22:53:53.855Z,94.09
2023-01-23T22:56:22.538Z,94.20
2023-01-23T22:58:52.576Z,93.82
2023-01-23T23:01:22.891Z,94.00
2023-01-23T23:03:50.460Z,94.10
2023-01-23T23:06:18.510Z,93.85
2023-01-23T23:08:47.979Z,93.90
2023-01-23T23:11:24.889Z,94.01
2023-01-23T23:13:52.608Z,94.10
2023-01-23T23:16:23.389Z,94.15
2023-01-23T23:18:54.002Z,93.74
2023-01-23T23:21:25.209Z,93.92
2023-01-23T23:23:57.855Z,94.03
2023-01-23T23:26:26.595Z,93.84
2023-01-23T23:28:55.152Z,93.90
2023-01-23T23:31:22.321Z,93.99
2023-01-23T23:33:49.390Z,94.04
2023-01-23T23:36:16.817Z,93.96
2023-01-23T23:38:44.044Z,94.13
2023-01-23T23:41:16.371Z,93.82
2023-01-23T23:43:44.174Z,93.93
2023-01-23T23:46:12.926Z,94.09
2023-01-23T23:48:39.996Z,93.84
2023-01-23T23:51:11.118Z,94.05
2023-01-23T23:53:38.094Z,93.89
2023-01-23T23:56:06.302Z,93.81
2023-01-23T23:58:36.325Z,93.85
